createdAt,value
2017-08-25T00:02:12.827Z,17.00
2017-08-25T00:04:38.898Z,17.00
2017-08-25T00:07:04.947Z,17.00
2017-08-25T00:09:31.042Z,17.00
2017-08-25T00:11:57.062Z,17.00
2017-08-25T00:14:23.462Z,17.00
2017-08-25T00:16:49.480Z,17.00
2017-08-25T00:19:15.502Z,17.00
2017-08-25T00:21:41.545Z,17.00
2017-08-25T00:24:07.555Z,17.00
2017-08-25T00:26:33.574Z,17.00
2017-08-25T00:28:59.906Z,17.00
2017-08-25T00:31:26.121Z,17.00
2017-08-25T00:33:52.154Z,17.00
2017-08-25T00:36:18.211Z,16.90
2017-08-25T00:38:44.258Z,16.80
2017-08-25T00:41:10.298Z,16.80
2017-08-25T00:43:36.355Z,16.70
2017-08-25T00:46:02.421Z,16.70
2017-08-25T00:48:28.470Z,16.70
2017-08-25T00:50:54.811Z,16.70
2017-08-25T00:53:20.845Z,16.70
2017-08-25T00:55:46.888Z,16.70
2017-08-25T00:58:13.202Z,16.70
2017-08-25T01:00:39.226Z,16.70
2017-08-25T01:03:05.259Z,16.70
2017-08-25T01:05:31.473Z,16.60
2017-08-25T01:07:57.526Z,16.70
2017-08-25T01:10:23.553Z,16.70
2017-08-25T01:12:49.818Z,16.70
2017-08-25T01:15:15.908Z,16.70
2017-08-25T01:17:41.957Z,16.70
2017-08-25T01:20:07.992Z,16.60
2017-08-25T01:22:34.018Z,16.60
2017-08-25T01:25:00.068Z,16.60
2017-08-25T01:27:26.590Z,16.60
2017-08-25T01:29:52.631Z,16.60
2017-08-25T01:32:18.700Z,16.60
2017-08-25T01:34:45.022Z,16.60
2017-08-25T01:37:11.042Z,16.60
2017-08-25T01:39:37.163Z,16.60
2017-08-25T01:42:03.397Z,16.50
2017-08-25T01:44:29.431Z,16.50
2017-08-25T01:46:55.557Z,16.40
2017-08-25T01:49:21.598Z,16.50
2017-08-25T01:51:47.659Z,16.40
2017-08-25T01:54:13.721Z,16.50
2017-08-25T01:56:40.358Z,16.50
2017-08-25T01:59:06.370Z,16.40
2017-08-25T02:01:32.431Z,16.30
2017-08-25T02:03:58.836Z,16.30
2017-08-25T02:06:24.850Z,16.40
2017-08-25T02:08:50.939Z,16.30
2017-08-25T02:11:17.309Z,16.30
2017-08-25T02:13:43.335Z,16.20
2017-08-25T02:16:09.391Z,16.20
2017-08-25T02:18:35.449Z,16.20
2017-08-25T02:21:01.497Z,16.10
2017-08-25T02:23:27.567Z,16.10
2017-08-25T02:25:53.622Z,16.10
2017-08-25T02:28:20.398Z,16.10
2017-08-25T02:30:46.459Z,16.10
2017-08-25T02:33:12.491Z,16.20
2017-08-25T02:35:38.553Z,16.20
2017-08-25T02:38:05.011Z,16.20
2017-08-25T02:40:31.029Z,16.20
2017-08-25T02:42:57.048Z,16.30
2017-08-25T02:45:23.438Z,16.20
2017-08-25T02:47:49.449Z,16.30
2017-08-25T02:50:15.470Z,16.20
2017-08-25T02:52:41.495Z,16.20
2017-08-25T02:55:07.510Z,16.30
2017-08-25T02:57:33.534Z,16.30
2017-08-25T02:59:59.611Z,16.30
2017-08-25T03:02:25.642Z,16.30
2017-08-25T03:04:51.699Z,16.40
2017-08-25T03:07:17.764Z,16.30
2017-08-25T03:09:43.985Z,16.30
2017-08-25T03:12:10.026Z,16.20
2017-08-25T03:14:36.225Z,16.10
2017-08-25T03:17:02.462Z,16.10
2017-08-25T03:19:28.490Z,16.10
2017-08-25T03:21:54.568Z,16.20
2017-08-25T03:24:20.599Z,16.20
2017-08-25T03:26:46.616Z,16.10
2017-08-25T03:29:12.683Z,16.20
2017-08-25T03:31:38.723Z,16.10
2017-08-25T03:34:04.758Z,16.20
2017-08-25T03:36:30.945Z,16.20
2017-08-25T03:38:57.082Z,16.20
2017-08-25T03:41:23.161Z,16.20
2017-08-25T03:43:49.434Z,16.10
2017-08-25T03:46:15.447Z,16.20
2017-08-25T03:48:41.461Z,16.20
2017-08-25T03:51:07.507Z,16.30
2017-08-25T03:53:33.609Z,16.20
2017-08-25T03:55:59.668Z,16.20
2017-08-25T03:58:25.730Z,16.20
2017-08-25T04:00:51.769Z,16.30
2017-08-25T04:03:17.799Z,16.30
2017-08-25T04:05:43.838Z,16.30
2017-08-25T04:08:09.862Z,16.30
2017-08-25T04:10:36.241Z,16.40
2017-08-25T04:13:02.284Z,16.40
2017-08-25T04:15:28.319Z,16.50
2017-08-25T04:17:54.378Z,16.40
2017-08-25T04:20:20.457Z,16.40
2017-08-25T04:22:46.486Z,16.40
2017-08-25T04:25:12.530Z,16.40
2017-08-25T04:27:38.593Z,16.40
2017-08-25T04:30:04.643Z,16.50
2017-08-25T04:32:30.736Z,16.50
2017-08-25T04:34:56.890Z,16.50
2017-08-25T04:37:23.075Z,16.50
2017-08-25T04:39:49.179Z,16.40
2017-08-25T04:42:15.227Z,16.50
2017-08-25T04:44:41.269Z,16.50
2017-08-25T04:47:07.313Z,16.40
2017-08-25T04:49:33.379Z,16.40
2017-08-25T04:51:59.402Z,16.50
2017-08-25T04:54:25.466Z,16.50
2017-08-25T04:56:51.534Z,16.40
2017-08-25T04:59:17.655Z,16.50
2017-08-25T05:01:43.767Z,16.50
2017-08-25T05:04:09.805Z,16.30
2017-08-25T05:06:35.842Z,16.30
2017-08-25T05:09:01.923Z,16.40
2017-08-25T05:11:27.955Z,16.40
2017-08-25T05:13:54.072Z,16.30
2017-08-25T05:18:52.970Z,16.30
2017-08-25T05:21:19.001Z,16.40
2017-08-25T05:23:45.102Z,16.40
2017-08-25T05:26:11.142Z,16.40
2017-08-25T05:28:37.194Z,16.50
2017-08-25T05:31:03.638Z,16.40
2017-08-25T05:33:29.682Z,16.40
2017-08-25T05:35:55.741Z,16.50
2017-08-25T05:38:21.800Z,16.50
2017-08-25T05:40:47.946Z,16.50
2017-08-25T05:43:13.977Z,16.50
2017-08-25T05:45:40.062Z,16.50
2017-08-25T05:48:06.094Z,16.50
2017-08-25T05:50:32.362Z,16.60
2017-08-25T05:52:58.510Z,16.60
2017-08-25T05:55:24.542Z,16.60
2017-08-25T05:57:50.582Z,16.60
2017-08-25T06:00:16.642Z,16.50
2017-08-25T06:02:42.672Z,16.50
2017-08-25T06:05:08.725Z,16.70
2017-08-25T06:07:34.979Z,16.70
2017-08-25T06:10:01.003Z,16.60
2017-08-25T06:12:27.054Z,16.60
2017-08-25T06:14:53.101Z,16.60
2017-08-25T06:17:19.125Z,16.70
2017-08-25T06:19:45.499Z,16.70
2017-08-25T06:22:11.556Z,16.60
2017-08-25T06:24:37.594Z,16.60
2017-08-25T06:27:03.738Z,16.50
2017-08-25T06:29:29.771Z,16.60
2017-08-25T06:31:55.827Z,16.50
2017-08-25T06:34:21.855Z,16.40
2017-08-25T06:36:47.965Z,16.50
2017-08-25T06:39:14.008Z,16.70
2017-08-25T06:41:40.086Z,16.70
2017-08-25T06:44:06.181Z,16.70
2017-08-25T06:46:32.194Z,16.70
2017-08-25T06:48:58.444Z,16.60
2017-08-25T06:51:24.478Z,16.60
2017-08-25T06:53:50.513Z,16.70
2017-08-25T06:56:16.550Z,16.70
2017-08-25T06:58:42.616Z,16.70
2017-08-25T07:01:08.644Z,16.80
2017-08-25T07:03:34.655Z,16.80
2017-08-25T07:06:00.700Z,16.80
2017-08-25T07:08:26.938Z,17.00
2017-08-25T07:10:53.110Z,17.10
2017-08-25T07:13:19.722Z,17.10
2017-08-25T07:15:45.751Z,17.00
2017-08-25T07:18:11.771Z,17.30
2017-08-25T07:20:37.810Z,17.20
2017-08-25T07:23:03.828Z,17.30
2017-08-25T07:25:29.888Z,17.30
2017-08-25T07:27:55.930Z,17.30
2017-08-25T07:30:21.960Z,17.40
2017-08-25T07:32:47.973Z,17.50
2017-08-25T07:35:14.357Z,17.50
2017-08-25T07:37:40.406Z,17.50
2017-08-25T07:40:06.478Z,17.50
2017-08-25T07:42:32.526Z,17.60
2017-08-25T07:44:58.587Z,17.70
2017-08-25T07:47:24.622Z,17.90
2017-08-25T07:49:50.675Z,17.90
2017-08-25T07:52:16.715Z,17.90
2017-08-25T07:54:42.780Z,17.90
2017-08-25T07:57:09.149Z,18.00
2017-08-25T07:59:35.182Z,18.00
2017-08-25T08:02:01.219Z,18.10
2017-08-25T08:04:27.310Z,18.20
2017-08-25T08:06:53.345Z,18.30
2017-08-25T08:09:19.362Z,18.30
2017-08-25T08:11:45.523Z,18.20
2017-08-25T08:14:11.566Z,18.20
2017-08-25T08:16:37.593Z,18.20
2017-08-25T08:19:03.659Z,18.30
2017-08-25T08:21:29.674Z,18.30
2017-08-25T08:23:55.699Z,18.40
2017-08-25T08:26:21.731Z,18.40
2017-08-25T08:28:47.751Z,18.50
2017-08-25T08:31:13.802Z,18.60
2017-08-25T08:33:39.875Z,18.60
2017-08-25T08:36:05.922Z,18.70
2017-08-25T08:38:31.926Z,18.70
2017-08-25T08:40:57.970Z,18.80
2017-08-25T08:43:23.986Z,18.80
2017-08-25T08:45:50.050Z,18.80
2017-08-25T08:48:16.129Z,18.80
2017-08-25T08:50:42.220Z,18.90
2017-08-25T08:53:08.236Z,19.00
2017-08-25T08:55:34.480Z,19.10
2017-08-25T08:58:00.519Z,19.30
2017-08-25T09:00:26.563Z,19.40
2017-08-25T09:02:52.783Z,19.50
2017-08-25T09:05:24.958Z,19.20
2017-08-25T09:07:50.980Z,19.20
2017-08-25T09:10:17.376Z,19.20
2017-08-25T09:12:43.402Z,19.00
2017-08-25T09:15:09.430Z,19.10
2017-08-25T09:17:35.630Z,19.10
2017-08-25T09:20:01.654Z,19.20
2017-08-25T09:22:27.717Z,19.20
2017-08-25T09:24:53.765Z,19.30
2017-08-25T09:27:19.826Z,19.30
2017-08-25T09:29:45.863Z,19.30
2017-08-25T09:32:11.881Z,19.30
2017-08-25T09:34:37.994Z,19.20
2017-08-25T09:37:04.010Z,19.20
2017-08-25T09:39:30.062Z,19.10
2017-08-25T09:41:56.086Z,19.10
2017-08-25T09:44:22.107Z,18.90
2017-08-25T09:46:48.181Z,18.90
2017-08-25T09:49:14.223Z,18.90
2017-08-25T09:51:40.245Z,18.90
2017-08-25T09:54:06.442Z,18.90
2017-08-25T09:56:32.474Z,18.80
2017-08-25T09:58:58.515Z,18.80
2017-08-25T10:01:28.442Z,18.90
2017-08-25T10:03:54.464Z,19.00
2017-08-25T10:06:20.486Z,19.80
2017-08-25T10:08:46.522Z,20.70
2017-08-25T10:11:12.578Z,21.10
2017-08-25T10:13:38.602Z,20.90
2017-08-25T10:16:04.641Z,20.60
2017-08-25T10:18:30.680Z,20.30
2017-08-25T10:20:56.907Z,20.00
2017-08-25T10:23:22.934Z,19.70
2017-08-25T10:25:48.959Z,19.60
2017-08-25T10:28:14.989Z,19.40
2017-08-25T10:30:41.026Z,19.40
2017-08-25T10:33:19.549Z,19.70
2017-08-25T10:35:57.990Z,19.90
2017-08-25T10:38:37.707Z,20.10
2017-08-25T10:41:16.018Z,20.40
2017-08-25T10:43:54.605Z,21.00
2017-08-25T10:46:20.628Z,21.10
2017-08-25T10:48:46.659Z,21.00
2017-08-25T10:51:12.714Z,21.10
2017-08-25T10:53:39.042Z,21.30
2017-08-25T10:56:05.094Z,21.60
2017-08-25T10:58:31.320Z,21.50
2017-08-25T11:00:57.355Z,21.60
2017-08-25T11:03:23.378Z,21.60
2017-08-25T11:05:49.698Z,21.60
2017-08-25T11:08:15.736Z,21.80
2017-08-25T11:10:41.774Z,21.90
2017-08-25T11:13:07.822Z,22.00
2017-08-25T11:15:33.870Z,22.10
2017-08-25T11:17:59.946Z,22.20
2017-08-25T11:20:26.162Z,22.30
2017-08-25T11:22:52.183Z,22.40
2017-08-25T11:25:18.206Z,22.30
2017-08-25T11:27:45.388Z,22.30
2017-08-25T11:30:11.433Z,21.90
2017-08-25T11:32:37.481Z,21.80
2017-08-25T11:35:03.520Z,21.70
2017-08-25T11:37:29.579Z,21.50
2017-08-25T11:39:55.638Z,21.50
2017-08-25T11:42:21.743Z,21.50
2017-08-25T11:44:47.779Z,21.20
2017-08-25T11:47:13.932Z,21.00
2017-08-25T11:49:40.014Z,20.80
2017-08-25T11:52:06.046Z,20.60
2017-08-25T11:54:32.074Z,20.60
2017-08-25T11:56:58.993Z,20.70
2017-08-25T11:59:25.038Z,20.70
2017-08-25T12:01:51.094Z,20.70
2017-08-25T12:04:17.159Z,20.90
2017-08-25T12:06:43.213Z,21.10
2017-08-25T12:09:09.225Z,21.10
2017-08-25T12:11:35.551Z,21.20
2017-08-25T12:14:01.587Z,21.30
2017-08-25T12:16:27.631Z,21.20
2017-08-25T12:18:53.760Z,21.10
2017-08-25T12:21:19.782Z,21.10
2017-08-25T12:23:45.804Z,21.00
2017-08-25T12:26:18.870Z,21.00
2017-08-25T12:28:44.904Z,21.20
2017-08-25T12:31:10.945Z,21.40
2017-08-25T12:33:37.214Z,21.70
2017-08-25T12:36:03.279Z,21.90
2017-08-25T12:38:29.305Z,22.10
2017-08-25T12:40:55.598Z,22.30
2017-08-25T12:43:21.623Z,22.30
2017-08-25T12:45:47.665Z,22.40
2017-08-25T12:48:14.786Z,22.40
2017-08-25T12:50:40.885Z,22.50
2017-08-25T12:53:06.906Z,22.40
2017-08-25T12:55:33.023Z,22.20
2017-08-25T12:57:59.046Z,22.10
2017-08-25T13:00:25.072Z,22.10
2017-08-25T13:02:51.309Z,22.20
2017-08-25T13:05:17.359Z,22.30
2017-08-25T13:07:43.406Z,22.40
2017-08-25T13:10:09.798Z,22.20
2017-08-25T13:12:35.814Z,22.10
2017-08-25T13:15:01.841Z,22.00
2017-08-25T13:17:28.063Z,22.10
2017-08-25T13:19:54.118Z,22.20
2017-08-25T13:22:20.135Z,22.30
2017-08-25T13:24:46.195Z,22.40
2017-08-25T13:27:12.247Z,22.50
2017-08-25T13:29:38.266Z,22.60
2017-08-25T13:32:04.599Z,22.60
2017-08-25T13:34:30.711Z,22.70
2017-08-25T13:36:56.740Z,22.70
2017-08-25T13:39:22.814Z,22.70
2017-08-25T13:41:48.853Z,22.70
2017-08-25T13:44:14.881Z,22.60
2017-08-25T13:46:40.934Z,22.50
2017-08-25T13:49:06.968Z,22.40
2017-08-25T13:51:32.979Z,22.20
2017-08-25T13:53:59.198Z,22.00
2017-08-25T13:56:25.234Z,22.00
2017-08-25T13:58:51.269Z,22.00
2017-08-25T14:01:17.322Z,22.00
2017-08-25T14:03:43.570Z,22.10
2017-08-25T14:06:09.654Z,22.00
2017-08-25T14:08:35.707Z,22.00
2017-08-25T14:11:01.775Z,22.00
2017-08-25T14:13:27.843Z,21.90
2017-08-25T14:15:53.869Z,21.80
2017-08-25T14:18:19.935Z,21.70
2017-08-25T14:20:45.962Z,21.80
2017-08-25T14:23:12.054Z,21.90
2017-08-25T14:25:38.398Z,21.90
2017-08-25T14:28:04.425Z,22.00
2017-08-25T14:30:30.447Z,21.90
2017-08-25T14:32:56.526Z,21.90
2017-08-25T14:35:22.570Z,21.90
2017-08-25T14:37:48.611Z,22.00
2017-08-25T14:40:14.839Z,21.90
2017-08-25T14:42:40.960Z,21.90
2017-08-25T14:45:06.994Z,22.00
2017-08-25T14:47:33.112Z,22.00
2017-08-25T14:49:59.195Z,21.90
2017-08-25T14:52:25.265Z,21.90
2017-08-25T14:54:51.674Z,21.90
2017-08-25T14:57:17.737Z,21.70
2017-08-25T14:59:43.765Z,21.60
2017-08-25T15:02:09.870Z,21.60
2017-08-25T15:04:35.903Z,21.50
2017-08-25T15:07:01.962Z,21.50
2017-08-25T15:09:28.027Z,21.50
2017-08-25T15:11:54.058Z,21.60
2017-08-25T15:14:20.088Z,21.50
2017-08-25T15:16:46.131Z,21.50
2017-08-25T15:19:12.195Z,21.50
2017-08-25T15:21:38.230Z,21.50
2017-08-25T15:24:04.339Z,21.50
2017-08-25T15:26:30.351Z,21.50
2017-08-25T15:28:56.398Z,21.40
2017-08-25T15:31:22.437Z,21.50
2017-08-25T15:33:48.473Z,21.40
2017-08-25T15:36:14.666Z,21.40
2017-08-25T15:38:40.738Z,21.40
2017-08-25T15:41:06.766Z,21.40
2017-08-25T15:43:32.818Z,21.40
2017-08-25T15:45:58.879Z,21.40
2017-08-25T15:48:24.937Z,21.40
2017-08-25T15:50:51.697Z,21.40
2017-08-25T15:53:25.213Z,21.40
2017-08-25T15:55:51.274Z,21.40
2017-08-25T15:58:17.310Z,21.40
2017-08-25T16:00:43.379Z,21.40
2017-08-25T16:03:09.454Z,21.40
2017-08-25T16:05:35.482Z,21.40
2017-08-25T16:08:01.562Z,21.40
2017-08-25T16:10:27.626Z,21.40
2017-08-25T16:12:53.670Z,21.30
2017-08-25T16:15:19.999Z,21.30
2017-08-25T16:17:46.034Z,21.30
2017-08-25T16:20:12.134Z,21.40
2017-08-25T16:22:38.182Z,21.30
2017-08-25T16:25:04.186Z,21.30
2017-08-25T16:27:36.822Z,21.20
2017-08-25T16:30:03.117Z,21.20
2017-08-25T16:32:29.139Z,21.10
2017-08-25T16:34:55.161Z,21.20
2017-08-25T16:37:21.565Z,21.10
2017-08-25T16:39:47.610Z,21.10
2017-08-25T16:42:13.671Z,21.10
2017-08-25T16:44:39.728Z,21.10
2017-08-25T16:47:05.759Z,21.00
2017-08-25T16:49:31.794Z,20.90
2017-08-25T16:51:57.860Z,20.90
2017-08-25T16:54:23.943Z,20.90
2017-08-25T16:56:50.002Z,20.90
2017-08-25T16:59:16.094Z,20.90
2017-08-25T17:01:42.188Z,20.90
2017-08-25T17:04:08.234Z,20.90
2017-08-25T17:06:34.557Z,20.80
2017-08-25T17:09:00.636Z,20.80
2017-08-25T17:11:26.678Z,20.70
2017-08-25T17:13:53.010Z,20.60
2017-08-25T17:16:19.078Z,20.70
2017-08-25T17:18:45.146Z,20.60
2017-08-25T17:21:11.263Z,20.60
2017-08-25T17:23:37.358Z,20.60
2017-08-25T17:26:03.390Z,20.50
2017-08-25T17:28:29.649Z,20.50
2017-08-25T17:30:55.716Z,20.40
2017-08-25T17:33:21.767Z,20.30
2017-08-25T17:35:48.237Z,20.30
2017-08-25T17:38:14.306Z,20.30
2017-08-25T17:40:40.330Z,20.20
2017-08-25T17:43:06.376Z,20.20
2017-08-25T17:45:32.421Z,20.20
2017-08-25T17:47:58.517Z,20.20
2017-08-25T17:50:24.690Z,20.10
2017-08-25T17:52:50.750Z,20.10
2017-08-25T17:55:16.802Z,20.00
2017-08-25T17:57:42.854Z,20.00
2017-08-25T18:00:08.944Z,20.00
2017-08-25T18:02:34.998Z,20.00
2017-08-25T18:05:01.053Z,19.90
2017-08-25T18:07:27.411Z,19.90
2017-08-25T18:09:53.479Z,19.80
2017-08-25T18:12:19.537Z,19.80
2017-08-25T18:14:45.606Z,19.70
2017-08-25T18:17:11.661Z,19.70
2017-08-25T18:19:37.714Z,19.70
2017-08-25T18:22:03.753Z,19.60
2017-08-25T18:24:29.814Z,19.50
2017-08-25T18:26:55.829Z,19.40
2017-08-25T18:29:21.886Z,19.40
2017-08-25T18:31:47.974Z,19.30
2017-08-25T18:34:14.029Z,19.20
2017-08-25T18:36:40.060Z,19.20
2017-08-25T18:39:06.122Z,19.10
2017-08-25T18:41:32.172Z,19.10
2017-08-25T18:43:58.206Z,19.00
2017-08-25T18:46:24.278Z,19.00
2017-08-25T18:48:50.350Z,18.90
2017-08-25T18:51:16.385Z,18.90
2017-08-25T18:53:42.475Z,18.80
2017-08-25T18:56:08.535Z,18.70
2017-08-25T18:58:34.598Z,18.70
2017-08-25T19:01:00.634Z,18.70
2017-08-25T19:03:26.654Z,18.60
2017-08-25T19:05:53.063Z,18.60
2017-08-25T19:08:19.098Z,18.60
2017-08-25T19:10:45.128Z,18.50
2017-08-25T19:13:11.207Z,18.40
2017-08-25T19:15:37.256Z,18.40
2017-08-25T19:18:03.318Z,18.40
2017-08-25T19:20:29.560Z,18.30
2017-08-25T19:22:55.870Z,18.30
2017-08-25T19:25:21.895Z,18.30
2017-08-25T19:27:48.078Z,18.30
2017-08-25T19:30:14.101Z,18.20
2017-08-25T19:32:40.136Z,18.20
2017-08-25T19:35:06.178Z,18.10
2017-08-25T19:37:32.226Z,18.10
2017-08-25T19:39:59.006Z,18.00
2017-08-25T19:42:25.030Z,18.00
2017-08-25T19:44:51.078Z,17.90
2017-08-25T19:47:17.164Z,18.00
2017-08-25T19:49:43.172Z,17.90
2017-08-25T19:52:09.197Z,17.90
2017-08-25T19:54:36.122Z,17.80
2017-08-25T19:57:02.149Z,17.80
2017-08-25T19:59:28.179Z,17.80
2017-08-25T20:01:54.498Z,17.80
2017-08-25T20:04:20.529Z,17.70
2017-08-25T20:06:46.561Z,17.70
2017-08-25T20:09:12.585Z,17.70
2017-08-25T20:11:38.606Z,17.60
2017-08-25T20:14:04.828Z,17.60
2017-08-25T20:16:30.867Z,17.60
2017-08-25T20:18:56.943Z,17.60
2017-08-25T20:21:22.997Z,17.50
2017-08-25T20:23:49.066Z,17.60
2017-08-25T20:26:15.451Z,17.50
2017-08-25T20:28:41.482Z,17.50
2017-08-25T20:32:23.186Z,17.40
2017-08-25T20:34:49.199Z,17.40
2017-08-25T20:37:15.213Z,17.40
2017-08-25T20:39:41.250Z,17.40
2017-08-25T20:42:07.274Z,17.40
2017-08-25T20:44:33.301Z,17.30
2017-08-25T20:46:59.712Z,17.30
2017-08-25T20:49:25.746Z,17.30
2017-08-25T20:51:51.770Z,17.20
2017-08-25T20:54:18.180Z,17.20
2017-08-25T20:56:44.210Z,17.10
2017-08-25T20:59:10.242Z,17.20
2017-08-25T21:01:36.302Z,17.10
2017-08-25T21:04:03.158Z,17.10
2017-08-25T21:06:29.182Z,17.10
2017-08-25T21:08:55.428Z,17.10
2017-08-25T21:11:21.455Z,17.10
2017-08-25T21:13:47.471Z,17.10
2017-08-25T21:16:13.529Z,17.10
2017-08-25T21:18:39.553Z,17.00
2017-08-25T21:21:05.586Z,17.00
2017-08-25T21:23:31.616Z,16.90
2017-08-25T21:25:57.635Z,16.90
2017-08-25T21:28:23.722Z,16.90
2017-08-25T21:30:49.786Z,16.90
2017-08-25T21:33:15.802Z,16.80
2017-08-25T21:35:41.904Z,16.80
2017-08-25T21:38:07.930Z,16.80
2017-08-25T21:40:33.981Z,16.80
2017-08-25T21:43:00.039Z,16.70
2017-08-25T21:45:26.063Z,16.70
2017-08-25T21:47:52.076Z,16.70
2017-08-25T21:50:18.154Z,16.60
2017-08-25T21:52:44.203Z,16.60
2017-08-25T21:55:10.251Z,16.60
2017-08-25T21:57:36.279Z,16.60
2017-08-25T22:00:02.330Z,16.60
2017-08-25T22:02:28.347Z,16.50
2017-08-25T22:04:54.390Z,16.50
2017-08-25T22:07:20.438Z,16.60
2017-08-25T22:09:46.459Z,16.50
2017-08-25T22:12:12.494Z,16.50
2017-08-25T22:14:38.778Z,16.40
2017-08-25T22:17:04.781Z,16.40
2017-08-25T22:19:30.804Z,16.40
2017-08-25T22:21:56.848Z,16.40
2017-08-25T22:24:22.862Z,16.30
2017-08-25T22:26:48.871Z,16.30
2017-08-25T22:29:14.914Z,16.30
2017-08-25T22:31:40.932Z,16.20
2017-08-25T22:34:06.950Z,16.30
2017-08-25T22:36:33.042Z,16.30
2017-08-25T22:38:59.064Z,16.20
2017-08-25T22:41:25.398Z,16.10
2017-08-25T22:43:51.691Z,16.10
2017-08-25T22:46:17.736Z,16.10
2017-08-25T22:48:43.765Z,16.10
2017-08-25T22:51:09.813Z,16.10
2017-08-25T22:53:35.836Z,16.10
2017-08-25T22:56:01.872Z,16.10
2017-08-25T22:58:27.886Z,16.10
2017-08-25T23:00:53.893Z,16.00
2017-08-25T23:03:19.940Z,16.00
2017-08-25T23:05:45.971Z,16.00
2017-08-25T23:08:11.990Z,15.90
2017-08-25T23:10:38.348Z,15.90
2017-08-25T23:13:04.414Z,15.90
2017-08-25T23:15:30.437Z,15.90
2017-08-25T23:17:56.509Z,15.90
2017-08-25T23:20:22.534Z,15.90
2017-08-25T23:22:48.570Z,15.90
2017-08-25T23:25:16.167Z,15.80
2017-08-25T23:27:42.209Z,15.80
2017-08-25T23:30:08.218Z,15.80
2017-08-25T23:32:34.282Z,15.70
2017-08-25T23:35:00.302Z,15.70
2017-08-25T23:37:26.326Z,15.70
2017-08-25T23:39:52.378Z,15.70
2017-08-25T23:42:18.396Z,15.60
2017-08-25T23:44:44.479Z,15.70
2017-08-25T23:47:10.525Z,15.60
2017-08-25T23:49:36.558Z,15.60
2017-08-25T23:52:02.575Z,15.60
2017-08-25T23:54:28.666Z,15.60
2017-08-25T23:56:54.694Z,15.60
2017-08-25T23:59:20.717Z,15.50
